Aeroporto :
LOGIN :

Iscrizione | Disclaimer

   EN    FR    IT 

 










Sommario :    VFR   VFR Marginale   IFR   IFR Intensivo   IFR Molto Intensivo
Visibilità : 
Base nubi : 
>= 8 km
>= 3000ft
5 / 8 km
1000 / 3000 ft
1500m / 5 km
500 / 1000 ft
800 / 1500m
200 / 500 ft
< 800m
< 200 ft
Simboli :   Temporali  Nebbia  Neve Forte  Precipitazioni Forti  Vento > 20 kt
SIGMETs :   Varie  Temporali  Ghiacco  Turbolenza  Onda orograficha  Ceneri Vulcaniche






- Altitudine del aeroporto : 197 ft
- Codice IATA : XOG


LFMO - Orange

ULTIMO METAR :
  • 010100Z AUTO 00000KT 9999 SCT030 03/M00 Q1019 NOSIG

METARs OBSOLETI :
  • 010030Z AUTO 00000KT CAVOK 04/M00 Q1019 NOSIG
  • 010000Z AUTO 00000KT CAVOK 05/01 Q1019 NOSIG
  • 312330Z AUTO 00000KT CAVOK 06/M00 Q1019 NOSIG
  • 312330Z AUTO 00000KT CAVOK 06/M00 Q1019 NOSIG
  • 312300Z AUTO 04004KT CAVOK 06/M00 Q1018 NOSIG
  • 312230Z AUTO VRB02KT CAVOK 08/M01 Q1018 NOSIG

TAF TAF LFMO
Valido dal 31 a 21 ore il 01 a 21 ore UTC


312000Z 3121/0121 30008KT CAVOK
TEMPO 0112/0118 18012KT



MetMap, La meteo Aeronautica in un colpo d'occhio ! - Copyright ORBIFLY Dicembre 2007 - Disclaimer

ORBIFLY MET'MAP TEAM :

Programmazione e sviluppo : Alexandra Zaïnal
Concezione : Baudouin d'Aumeries
Aiuto per la programmazione : Marc-Olivier Méhu
Supporto tecnico e logistico : Manuel Goepfert
Aiuto per la traduzione : Arnaldo La Scala

Contatto : metmap@orbifly.com




FONTI E CREDITI :

   NOAA